Time;durP1;ratioP1;P1;durP2;ratioP2;P2;SDS_P1;SDS_P2;PMS_P1;PMS_P2;Temp;Humidity;BMP_temperature;BMP_pressure;BME280_temperature;BME280_humidity;BME280_pressure;Samples;Min_cycle;Max_cycle;Signal;HPM_P1;HPM_P2
2023/08/24 00:01:30;;;;;;;3.80;2.85;;;;;;;35.49;44.76;99101.56;5093248;28;20043;-69
2023/08/24 00:03:56;;;;;;;3.40;2.58;;;;;;;35.48;44.73;99105.28;5094208;28;20059;-68
2023/08/24 00:06:21;;;;;;;4.13;2.60;;;;;;;35.49;44.36;99107.00;5094606;28;20077;-68
2023/08/24 00:08:47;;;;;;;4.10;2.95;;;;;;;35.48;44.46;99099.88;5094655;28;20112;-68
2023/08/24 00:11:14;;;;;;;3.90;2.67;;;;;;;35.48;44.50;99105.28;5094428;28;20028;-69
2023/08/24 00:13:48;;;;;;;3.58;2.70;;;;;;;35.46;44.72;99097.38;5094264;28;20165;-68
2023/08/24 00:16:15;;;;;;;4.72;2.65;;;;;;;35.46;44.77;99091.09;5094413;28;20016;-69
2023/08/24 00:18:40;;;;;;;5.25;2.85;;;;;;;35.45;44.77;99089.44;5094124;28;20096;-68
2023/08/24 00:21:07;;;;;;;4.50;3.00;;;;;;;35.44;44.50;99090.47;5094293;28;20361;-67
2023/08/24 00:23:33;;;;;;;3.60;2.70;;;;;;;35.44;44.72;99082.34;5094299;28;20032;-69
2023/08/24 00:25:59;;;;;;;3.95;2.90;;;;;;;35.42;44.19;99087.09;5094092;28;20036;-68
2023/08/24 00:28:25;;;;;;;4.32;2.90;;;;;;;35.43;44.74;99091.53;5094051;28;20399;-69
2023/08/24 00:30:51;;;;;;;4.38;3.15;;;;;;;35.42;44.56;99084.38;5094294;28;20111;-69
2023/08/24 00:33:16;;;;;;;4.35;2.60;;;;;;;35.40;44.62;99087.31;5093812;28;20115;-69
2023/08/24 00:35:42;;;;;;;3.33;2.63;;;;;;;35.42;44.51;99089.81;5094056;28;20028;-69
2023/08/24 00:38:07;;;;;;;4.32;2.90;;;;;;;35.41;44.60;99090.84;5094075;28;20023;-69
2023/08/24 00:40:32;;;;;;;4.93;2.83;;;;;;;35.40;44.88;99095.47;5093905;28;20475;-69
2023/08/24 00:42:58;;;;;;;4.45;2.92;;;;;;;35.40;44.36;99086.47;5093872;28;20466;-68
2023/08/24 00:45:23;;;;;;;4.15;2.83;;;;;;;35.38;44.69;99083.94;5093655;28;20024;-68
2023/08/24 00:47:49;;;;;;;3.67;2.95;;;;;;;35.37;44.63;99085.00;5109158;28;20069;-69
2023/08/24 00:50:16;;;;;;;4.40;2.90;;;;;;;35.37;44.79;99086.84;5093728;28;20032;-68
2023/08/24 00:52:42;;;;;;;4.15;2.92;;;;;;;35.38;44.71;99083.13;5093881;28;20483;-69
2023/08/24 00:55:08;;;;;;;3.50;2.58;;;;;;;35.34;44.67;99080.81;5093703;28;20039;-68
2023/08/24 00:57:36;;;;;;;4.00;2.72;;;;;;;35.32;44.79;99082.88;5093551;28;20030;-68
2023/08/24 01:00:11;;;;;;;3.90;2.88;;;;;;;35.29;44.12;99080.56;5093230;28;20237;-68
2023/08/24 01:02:37;;;;;;;4.10;2.80;;;;;;;35.29;44.22;99085.97;5093035;28;20449;-68
2023/08/24 01:05:04;;;;;;;4.57;3.20;;;;;;;35.26;44.07;99080.97;5093251;28;20410;-68
2023/08/24 01:07:31;;;;;;;3.58;2.60;;;;;;;35.24;44.00;99083.03;5093494;28;20039;-68
2023/08/24 01:09:56;;;;;;;4.05;2.92;;;;;;;35.22;43.86;99074.25;5093284;28;20020;-68
2023/08/24 01:12:42;;;;;;;4.28;3.00;;;;;;;35.18;43.91;99072.97;5093314;28;20105;-69
2023/08/24 01:15:20;;;;;;;4.07;2.97;;;;;;;35.18;44.00;99072.97;5093125;28;20392;-68
2023/08/24 01:17:47;;;;;;;5.13;3.35;;;;;;;35.17;43.99;99068.59;5093021;28;20107;-68
2023/08/24 01:20:15;;;;;;;4.38;3.25;;;;;;;35.15;44.08;99067.97;5092998;28;20072;-68
2023/08/24 01:22:58;;;;;;;4.57;3.22;;;;;;;35.14;44.17;99066.28;5093302;28;20103;-68
2023/08/24 01:25:28;;;;;;;4.65;3.03;;;;;;;35.14;43.90;99069.00;5093249;28;20035;-69
2023/08/24 01:27:55;;;;;;;4.68;3.25;;;;;;;35.14;43.95;99060.88;5093156;28;20028;-69
2023/08/24 01:30:21;;;;;;;5.18;3.30;;;;;;;35.12;43.76;99057.50;5093031;28;20084;-69
2023/08/24 01:32:46;;;;;;;5.38;3.95;;;;;;;35.10;43.86;99054.97;5092737;28;20103;-68
2023/08/24 01:35:11;;;;;;;4.47;3.50;;;;;;;35.09;43.92;99047.88;5092970;28;20039;-69
2023/08/24 01:37:38;;;;;;;4.47;3.30;;;;;;;35.10;44.27;99054.16;5092870;28;20027;-69
2023/08/24 01:40:32;;;;;;;5.43;3.90;;;;;;;35.08;44.25;99047.03;5091643;28;20028;-69
2023/08/24 01:43:05;;;;;;;5.30;3.25;;;;;;;35.08;44.00;99046.19;5092897;28;20028;-68
2023/08/24 01:45:32;;;;;;;4.57;3.35;;;;;;;35.06;44.13;99051.78;5092527;28;20080;-69
2023/08/24 01:48:02;;;;;;;4.43;3.28;;;;;;;35.06;43.92;99054.50;5092693;28;20480;-69
2023/08/24 01:50:29;;;;;;;4.75;3.53;;;;;;;35.06;44.32;99059.09;5092761;28;20066;-68
2023/08/24 01:52:55;;;;;;;4.78;3.45;;;;;;;35.04;43.91;99051.16;5092605;28;20042;-68
2023/08/24 01:55:20;;;;;;;4.07;3.00;;;;;;;35.03;43.74;99057.63;5091391;28;20028;-69
2023/08/24 01:57:47;;;;;;;4.97;3.05;;;;;;;35.02;44.20;99046.97;5092503;28;20047;-69
2023/08/24 02:00:13;;;;;;;6.35;3.20;;;;;;;35.00;44.10;99055.28;5090828;28;20109;-69
2023/08/24 02:02:38;;;;;;;4.05;3.30;;;;;;;35.01;43.92;99046.13;5092288;28;20507;-69
2023/08/24 02:05:04;;;;;;;5.28;3.35;;;;;;;34.99;44.19;99047.38;5091094;28;20561;-68
2023/08/24 02:07:29;;;;;;;4.30;3.45;;;;;;;35.01;44.33;99048.81;5092645;28;20110;-68
2023/08/24 02:09:55;;;;;;;4.55;3.25;;;;;;;34.98;43.94;99046.53;5092074;28;20460;-69
2023/08/24 02:12:20;;;;;;;4.70;3.50;;;;;;;34.96;44.06;99043.19;5092311;28;20028;-69
2023/08/24 02:14:46;;;;;;;4.85;3.50;;;;;;;34.96;43.83;99043.19;5091966;28;20048;-68
2023/08/24 02:17:11;;;;;;;4.32;3.20;;;;;;;34.93;43.94;99038.16;5092170;28;20043;-68
2023/08/24 02:19:37;;;;;;;5.38;3.65;;;;;;;34.94;44.01;99039.81;5092195;28;20471;-69
2023/08/24 02:22:02;;;;;;;4.55;3.47;;;;;;;34.92;44.00;99033.75;5092342;28;20032;-69
2023/08/24 02:24:27;;;;;;;4.40;3.17;;;;;;;34.92;44.31;99031.06;5092232;28;20122;-68
2023/08/24 02:26:53;;;;;;;5.25;3.33;;;;;;;34.91;43.98;99034.81;5092478;28;20062;-68
2023/08/24 02:29:18;;;;;;;5.13;3.65;;;;;;;34.90;44.01;99033.13;5091906;28;20475;-68
2023/08/24 02:31:44;;;;;;;4.63;3.40;;;;;;;34.90;44.45;99036.66;5092259;28;20055;-68
2023/08/24 02:34:10;;;;;;;4.03;3.15;;;;;;;34.91;44.34;99034.81;5092326;28;20025;-69
2023/08/24 02:36:35;;;;;;;4.53;3.35;;;;;;;34.91;44.26;99026.69;5090973;28;20028;-68
2023/08/24 02:39:01;;;;;;;4.75;3.25;;;;;;;34.88;44.01;99025.19;5091958;28;20024;-69
2023/08/24 02:41:27;;;;;;;4.20;3.05;;;;;;;34.87;44.13;99012.69;5092201;28;20518;-68
2023/08/24 02:43:53;;;;;;;5.43;3.78;;;;;;;34.86;43.92;99010.16;5091622;28;20038;-69
2023/08/24 02:46:18;;;;;;;5.25;3.75;;;;;;;34.84;43.88;99014.91;5092112;28;20107;-69
2023/08/24 02:48:44;;;;;;;5.60;3.45;;;;;;;34.84;44.15;99012.22;5092087;28;20032;-68
2023/08/24 02:51:10;;;;;;;4.80;3.58;;;;;;;34.82;43.84;99012.44;5092032;28;20024;-69
2023/08/24 02:53:36;;;;;;;5.47;3.22;;;;;;;34.80;44.13;99001.78;5092039;28;20056;-70
2023/08/24 02:56:02;;;;;;;5.88;3.88;;;;;;;34.78;44.01;99009.28;5091977;28;20032;-68
2023/08/24 02:58:28;;;;;;;5.47;3.63;;;;;;;34.78;44.11;99003.88;5091662;28;20429;-68
2023/08/24 03:00:53;;;;;;;6.65;4.18;;;;;;;34.77;44.04;99007.59;5091669;28;20106;-69
2023/08/24 03:03:19;;;;;;;4.47;3.50;;;;;;;34.77;44.10;98994.03;5091886;28;20070;-68
2023/08/24 03:05:57;;;;;;;5.10;3.53;;;;;;;34.75;43.92;98992.56;5092033;28;20439;-68
2023/08/24 03:08:23;;;;;;;5.03;3.53;;;;;;;34.73;43.53;98995.47;5091520;28;20161;-68
2023/08/24 03:10:48;;;;;;;5.15;3.75;;;;;;;34.71;43.69;98997.53;5090550;28;20058;-69
2023/08/24 03:13:14;;;;;;;5.35;3.88;;;;;;;34.71;43.74;98997.53;5091375;28;20035;-68
2023/08/24 03:15:39;;;;;;;4.68;3.88;;;;;;;34.68;43.83;99003.34;5091786;28;20028;-69
2023/08/24 03:18:05;;;;;;;5.07;4.05;;;;;;;34.66;43.58;99003.53;5091860;28;20030;-68
2023/08/24 03:20:30;;;;;;;5.95;4.20;;;;;;;34.65;43.55;99004.59;5091648;28;20601;-68
2023/08/24 03:22:57;;;;;;;6.55;4.07;;;;;;;34.66;43.96;99010.81;5094314;28;20030;-69
2023/08/24 03:25:22;;;;;;;4.57;3.90;;;;;;;34.62;43.51;98998.72;5095622;28;20027;-68
2023/08/24 03:27:48;;;;;;;4.40;3.58;;;;;;;34.61;43.86;99005.19;5095007;28;20028;-69
2023/08/24 03:30:14;;;;;;;5.32;3.75;;;;;;;34.61;43.77;99007.88;5095382;28;20462;-69
2023/08/24 03:32:42;;;;;;;5.80;3.95;;;;;;;34.59;43.75;99004.50;5095244;28;20031;-69
2023/08/24 03:35:08;;;;;;;6.13;4.40;;;;;;;34.60;43.55;99000.75;5093860;28;20028;-69
2023/08/24 03:37:33;;;;;;;5.90;4.10;;;;;;;34.54;43.88;99003.22;5095307;28;20024;-69
2023/08/24 03:39:59;;;;;;;5.53;4.10;;;;;;;34.55;43.91;99002.19;5093985;28;20111;-69
2023/08/24 03:42:24;;;;;;;5.05;4.07;;;;;;;34.53;43.89;99001.50;5094574;28;20024;-68
2023/08/24 03:44:50;;;;;;;4.90;4.20;;;;;;;34.53;43.88;99003.41;5095041;28;20032;-69
2023/08/24 03:47:15;;;;;;;6.13;4.38;;;;;;;34.52;44.00;99005.25;5094820;28;20632;-70
2023/08/24 03:49:44;;;;;;;5.30;4.22;;;;;;;34.52;43.77;99001.75;5094956;28;20028;-67
2023/08/24 03:52:09;;;;;;;4.50;3.75;;;;;;;34.51;43.87;99003.59;5094946;28;20056;-68
2023/08/24 03:54:35;;;;;;;5.38;4.15;;;;;;;34.50;43.90;99004.63;5094906;28;20064;-69
2023/08/24 03:57:01;;;;;;;7.45;4.20;;;;;;;34.51;44.09;99006.31;5094598;28;20081;-68
2023/08/24 03:59:27;;;;;;;5.50;3.80;;;;;;;34.48;43.73;99009.41;5094866;28;20024;-68
2023/08/24 04:01:52;;;;;;;5.65;4.00;;;;;;;34.48;43.79;99009.41;5094530;28;20044;-70
2023/08/24 04:04:18;;;;;;;5.10;3.80;;;;;;;34.49;43.79;98999.41;5094710;28;20028;-68
2023/08/24 04:06:43;;;;;;;4.75;3.65;;;;;;;34.48;44.05;98998.59;5094822;28;20020;-69
2023/08/24 04:09:09;;;;;;;6.72;4.18;;;;;;;34.46;44.04;99000.63;5094441;28;20153;-69
2023/08/24 04:11:34;;;;;;;5.28;3.95;;;;;;;34.47;43.91;98996.06;5094288;28;20070;-69
2023/08/24 04:14:00;;;;;;;5.15;4.50;;;;;;;34.45;43.70;98998.97;5094536;28;20024;-69
2023/08/24 04:16:25;;;;;;;6.15;4.50;;;;;;;34.45;43.94;99004.38;5094448;28;20499;-69
2023/08/24 04:18:50;;;;;;;6.18;4.25;;;;;;;34.42;43.62;98994.75;5094399;28;20030;-69
2023/08/24 04:21:16;;;;;;;6.65;4.32;;;;;;;34.41;43.58;98993.09;5094586;28;20081;-70
2023/08/24 04:23:44;;;;;;;5.68;3.97;;;;;;;34.40;43.77;98990.56;5094329;28;20502;-67
2023/08/24 04:26:11;;;;;;;5.38;4.05;;;;;;;34.39;43.70;98994.31;5094028;28;20028;-68
2023/08/24 04:28:37;;;;;;;6.07;4.13;;;;;;;34.39;43.81;98997.03;5094276;28;20078;-68
2023/08/24 04:31:03;;;;;;;5.82;4.43;;;;;;;34.37;43.91;98993.69;5094236;28;20016;-68
2023/08/24 04:33:28;;;;;;;6.55;4.43;;;;;;;34.35;43.54;98998.44;5093480;28;20391;-68
2023/08/24 04:35:53;;;;;;;6.55;4.13;;;;;;;34.35;43.88;98998.44;5094071;28;20033;-67
2023/08/24 04:38:19;;;;;;;6.63;4.60;;;;;;;34.35;43.94;98995.72;5093827;28;20020;-68
2023/08/24 04:40:51;;;;;;;5.53;4.30;;;;;;;34.32;44.05;98996.94;5093536;28;20016;-69
2023/08/24 04:43:17;;;;;;;6.38;4.00;;;;;;;34.33;43.94;99003.22;5093893;28;20016;-69
2023/08/24 04:45:45;;;;;;;5.75;4.15;;;;;;;34.30;43.63;99006.31;5093805;28;20020;-68
2023/08/24 04:48:10;;;;;;;5.82;3.97;;;;;;;34.27;43.62;98997.53;5093879;28;20035;-68
2023/08/24 04:50:36;;;;;;;5.38;4.55;;;;;;;34.27;43.90;99002.97;5093729;28;20415;-69
2023/08/24 04:53:01;;;;;;;6.22;4.82;;;;;;;34.28;43.96;99001.91;5093724;28;20396;-68
2023/08/24 04:55:27;;;;;;;7.05;4.35;;;;;;;34.25;43.96;98999.63;5093473;28;20073;-68
2023/08/24 04:57:52;;;;;;;5.45;4.18;;;;;;;34.26;43.63;99001.28;5093615;28;20020;-69
2023/08/24 05:00:18;;;;;;;6.78;4.50;;;;;;;34.27;44.05;99005.66;5093674;28;20020;-69
2023/08/24 05:02:43;;;;;;;5.25;4.13;;;;;;;34.22;43.90;99000.00;5093240;28;20085;-68
2023/08/24 05:05:13;;;;;;;5.95;4.50;;;;;;;34.22;43.74;99000.00;5093425;28;20035;-69
2023/08/24 05:07:40;;;;;;;6.38;4.45;;;;;;;34.23;44.00;99001.66;5093344;28;20089;-68
2023/08/24 05:10:06;;;;;;;5.70;4.60;;;;;;;34.22;43.72;98999.16;5093193;28;20044;-69
2023/08/24 05:12:34;;;;;;;5.72;3.85;;;;;;;34.23;43.85;99006.25;5093425;28;20032;-69
2023/08/24 05:14:59;;;;;;;6.28;4.30;;;;;;;34.23;43.77;99006.25;5093272;28;20031;-67
2023/08/24 05:17:26;;;;;;;6.72;4.80;;;;;;;34.24;43.93;99005.22;5093240;28;20380;-69
2023/08/24 05:19:54;;;;;;;5.82;4.43;;;;;;;34.25;44.03;99006.88;5093352;28;20054;-69
2023/08/24 05:22:19;;;;;;;5.85;4.10;;;;;;;34.26;43.73;99006.69;5093133;28;20049;-68
2023/08/24 05:24:45;;;;;;;5.93;4.53;;;;;;;34.24;43.70;99010.63;5092734;28;20032;-67
2023/08/24 05:27:10;;;;;;;5.70;4.28;;;;;;;34.22;44.02;99018.94;5093105;28;20024;-69
2023/08/24 05:29:35;;;;;;;6.05;4.25;;;;;;;34.21;43.69;99014.56;5093059;28;20024;-68
2023/08/24 05:32:02;;;;;;;6.10;4.07;;;;;;;34.19;44.00;99013.94;5093125;28;20484;-68
2023/08/24 05:34:28;;;;;;;5.90;4.55;;;;;;;34.19;43.77;99019.34;5092847;28;20024;-69
2023/08/24 05:36:53;;;;;;;6.30;4.50;;;;;;;34.19;43.79;99021.19;5093012;28;20024;-68
2023/08/24 05:39:19;;;;;;;6.30;4.65;;;;;;;34.18;43.93;99023.06;5092513;28;20507;-68
2023/08/24 05:41:44;;;;;;;5.70;4.00;;;;;;;34.18;43.90;99025.75;5092741;28;20076;-69
2023/08/24 05:44:10;;;;;;;5.57;4.38;;;;;;;34.18;43.88;99031.16;5092896;28;20476;-69
2023/08/24 05:46:35;;;;;;;6.57;4.72;;;;;;;34.17;44.17;99034.91;5091834;28;20021;-68
2023/08/24 05:49:00;;;;;;;7.28;4.88;;;;;;;34.16;44.02;99027.84;5092602;28;20150;-69
2023/08/24 05:51:26;;;;;;;6.60;4.63;;;;;;;34.16;43.51;99033.25;5092587;28;20024;-69
2023/08/24 05:53:58;;;;;;;5.00;3.85;;;;;;;34.16;44.07;99033.25;5092327;28;20032;-69
2023/08/24 05:56:23;;;;;;;6.20;4.57;;;;;;;34.18;43.93;99036.59;5092888;28;20099;-69
2023/08/24 05:58:49;;;;;;;5.95;4.60;;;;;;;34.17;44.10;99026.78;5092790;28;20065;-69
2023/08/24 06:01:14;;;;;;;5.97;4.57;;;;;;;34.17;43.85;99029.50;5092468;28;20431;-68
2023/08/24 06:03:40;;;;;;;6.07;4.60;;;;;;;34.20;44.05;99031.84;5092645;28;20608;-69
2023/08/24 06:06:05;;;;;;;6.90;4.22;;;;;;;34.18;43.81;99036.59;5092667;28;20020;-69
2023/08/24 06:08:31;;;;;;;6.15;4.20;;;;;;;34.19;43.86;99032.88;5092238;28;20116;-69
2023/08/24 06:10:58;;;;;;;6.57;4.30;;;;;;;34.19;43.95;99035.59;5092202;28;20031;-69
2023/08/24 06:13:23;;;;;;;6.43;4.63;;;;;;;34.18;43.96;99041.19;5092022;28;20034;-69
2023/08/24 06:15:49;;;;;;;4.97;3.95;;;;;;;34.16;43.99;99038.66;5092118;28;20028;-69
2023/08/24 06:18:15;;;;;;;5.88;4.63;;;;;;;34.13;44.08;99030.94;5092038;28;20480;-68
2023/08/24 06:20:41;;;;;;;5.03;3.88;;;;;;;34.13;44.06;99044.47;5092114;28;20017;-69
2023/08/24 06:23:07;;;;;;;6.43;4.00;;;;;;;34.13;44.13;99034.47;5091547;28;20031;-69
2023/08/24 06:25:33;;;;;;;5.35;4.15;;;;;;;34.14;43.71;99032.59;5091926;28;20074;-69
2023/08/24 06:27:59;;;;;;;5.93;4.60;;;;;;;34.15;43.97;99037.00;5090567;28;20020;-68
2023/08/24 06:30:25;;;;;;;6.20;4.38;;;;;;;34.13;43.51;99026.34;5091871;28;20082;-68
2023/08/24 06:32:50;;;;;;;5.38;4.20;;;;;;;34.14;43.78;99030.72;5091983;28;20051;-70
2023/08/24 06:35:16;;;;;;;5.40;4.32;;;;;;;34.12;44.05;99027.38;5092031;28;20118;-69
2023/08/24 06:37:43;;;;;;;5.05;4.13;;;;;;;34.13;43.73;99022.81;5091556;28;20048;-68
2023/08/24 06:40:09;;;;;;;5.15;4.18;;;;;;;34.13;44.02;99029.06;5092018;28;20032;-70
2023/08/24 06:42:34;;;;;;;6.20;4.38;;;;;;;34.17;43.85;99031.38;5091811;28;20024;-69
2023/08/24 06:44:59;;;;;;;5.97;4.55;;;;;;;34.17;44.06;99034.09;5091716;28;20035;-69
2023/08/24 06:47:25;;;;;;;5.95;4.18;;;;;;;34.16;43.80;99030.53;5091896;28;20395;-69
2023/08/24 06:49:51;;;;;;;5.68;4.10;;;;;;;34.17;43.74;99026.78;5090127;28;20528;-69
2023/08/24 06:52:16;;;;;;;5.82;4.40;;;;;;;34.16;43.85;99027.84;5091618;28;20053;-69
2023/08/24 06:54:41;;;;;;;6.13;4.03;;;;;;;34.19;43.59;99024.75;5091922;28;20091;-69
2023/08/24 06:57:07;;;;;;;5.55;4.30;;;;;;;34.19;44.01;99030.16;5092129;28;20012;-68
2023/08/24 06:59:32;;;;;;;5.22;4.20;;;;;;;34.20;43.99;99037.25;5095582;28;20476;-69
2023/08/24 07:01:58;;;;;;;4.97;3.97;;;;;;;34.21;43.74;99035.38;5095533;28;20040;-69
2023/08/24 07:04:23;;;;;;;5.47;4.13;;;;;;;34.20;44.11;99045.38;5095299;28;20024;-69
2023/08/24 07:06:48;;;;;;;5.25;4.15;;;;;;;34.21;44.14;99038.06;5095652;28;20024;-69
2023/08/24 07:09:15;;;;;;;4.63;4.03;;;;;;;34.22;44.03;99043.31;5095499;28;20496;-69
2023/08/24 07:11:40;;;;;;;5.18;3.90;;;;;;;34.24;43.86;99041.22;5095315;28;20024;-69
2023/08/24 07:14:06;;;;;;;4.72;4.05;;;;;;;34.26;44.17;99039.19;5095257;28;20028;-69
2023/08/24 07:16:31;;;;;;;4.97;3.80;;;;;;;34.25;43.95;99037.53;5095294;28;20142;-69
2023/08/24 07:18:57;;;;;;;4.63;3.95;;;;;;;34.26;44.02;99028.38;5094915;28;20031;-69
2023/08/24 07:21:22;;;;;;;5.10;4.03;;;;;;;34.27;43.95;99035.44;5095318;28;20032;-70
2023/08/24 07:23:48;;;;;;;5.40;4.38;;;;;;;34.28;43.77;99030.88;5095123;28;20024;-68
2023/08/24 07:26:13;;;;;;;5.57;4.45;;;;;;;34.30;43.88;99025.25;5095320;28;20024;-70
2023/08/24 07:28:39;;;;;;;5.63;4.15;;;;;;;34.31;43.62;99032.38;5095054;28;20491;-69
2023/08/24 07:31:11;;;;;;;6.60;4.28;;;;;;;34.30;44.07;99027.97;5094950;28;20524;-69
2023/08/24 07:33:40;;;;;;;4.85;4.13;;;;;;;34.32;43.93;99023.22;5094764;28;20035;-71
2023/08/24 07:36:06;;;;;;;4.82;4.10;;;;;;;34.32;43.93;99025.91;5095118;28;20027;-69
2023/08/24 07:38:32;;;;;;;5.53;4.45;;;;;;;34.33;43.84;99019.47;5093623;28;20392;-69
2023/08/24 07:40:58;;;;;;;5.78;4.00;;;;;;;34.32;43.86;99015.91;5094687;28;20099;-70
2023/08/24 07:43:24;;;;;;;5.25;4.28;;;;;;;34.35;43.70;99011.97;5094757;28;20399;-69
2023/08/24 07:45:50;;;;;;;4.80;3.88;;;;;;;34.35;44.13;98998.44;5094881;28;20111;-69
2023/08/24 07:48:15;;;;;;;5.63;4.38;;;;;;;34.36;44.04;99000.09;5094466;28;20031;-69
2023/08/24 07:50:41;;;;;;;4.78;4.18;;;;;;;34.39;43.73;98997.88;5094822;28;20487;-68
2023/08/24 07:53:06;;;;;;;5.45;4.25;;;;;;;34.40;43.96;98996.00;5094645;28;20040;-69
2023/08/24 07:55:32;;;;;;;4.35;3.63;;;;;;;34.40;43.66;98996.00;5094894;28;20463;-69
2023/08/24 07:57:57;;;;;;;6.60;4.05;;;;;;;34.41;43.83;98994.94;5094409;28;20024;-69
2023/08/24 08:00:24;;;;;;;5.70;4.43;;;;;;;34.41;43.90;98998.50;5094581;28;20073;-68
2023/08/24 08:02:50;;;;;;;4.80;3.85;;;;;;;34.41;43.60;99003.94;5094084;28;20036;-70
2023/08/24 08:05:16;;;;;;;5.88;4.30;;;;;;;34.41;43.84;99003.94;5094483;28;20036;-69
2023/08/24 08:07:42;;;;;;;5.55;4.65;;;;;;;34.41;44.07;99000.38;5093825;28;20540;-69
2023/08/24 08:10:08;;;;;;;5.22;4.28;;;;;;;34.40;43.83;99004.13;5093732;28;20028;-69
2023/08/24 08:12:34;;;;;;;5.25;4.03;;;;;;;34.40;43.60;99004.97;5094272;28;20494;-69
2023/08/24 08:15:00;;;;;;;6.68;4.20;;;;;;;34.41;43.48;99003.06;5094117;28;20027;-69
2023/08/24 08:17:27;;;;;;;7.40;4.50;;;;;;;34.40;43.60;99009.53;5094035;28;20019;-69
2023/08/24 08:19:56;;;;;;;5.93;4.30;;;;;;;34.42;43.63;99004.75;5094059;28;20051;-69
2023/08/24 08:22:22;;;;;;;5.22;4.38;;;;;;;34.44;43.38;98997.28;5094242;28;20514;-69
2023/08/24 08:24:47;;;;;;;6.32;4.50;;;;;;;34.43;43.40;99003.75;5094100;28;20028;-69
2023/08/24 08:27:13;;;;;;;5.47;4.15;;;;;;;34.45;43.48;99006.22;5093962;28;20020;-69
2023/08/24 08:29:38;;;;;;;5.18;4.57;;;;;;;34.46;43.44;99011.47;5094059;28;20439;-69
2023/08/24 08:32:05;;;;;;;6.93;4.47;;;;;;;34.46;43.49;99005.22;5093584;28;20509;-70
2023/08/24 08:34:31;;;;;;;6.07;4.57;;;;;;;34.45;43.36;99012.50;5093928;28;20107;-70
2023/08/24 08:36:57;;;;;;;4.65;3.70;;;;;;;34.46;43.01;99014.16;5093677;28;20016;-71
2023/08/24 08:39:23;;;;;;;6.07;3.90;;;;;;;34.45;43.08;99020.63;5093738;28;20027;-70
2023/08/24 08:41:49;;;;;;;5.93;4.60;;;;;;;34.48;43.29;99019.41;5093761;28;20028;-69
2023/08/24 08:44:15;;;;;;;6.47;4.55;;;;;;;34.47;43.10;99013.13;5093752;28;20099;-69
2023/08/24 08:46:42;;;;;;;5.53;4.40;;;;;;;34.45;43.41;99012.50;5093212;28;20020;-69
2023/08/24 08:49:09;;;;;;;5.50;4.40;;;;;;;34.49;43.52;99010.25;5092085;28;20020;-69
2023/08/24 08:51:38;;;;;;;5.18;4.13;;;;;;;34.47;43.14;99007.72;5093311;28;20054;-69
2023/08/24 08:54:05;;;;;;;5.05;4.10;;;;;;;34.46;43.40;99008.75;5093512;28;20024;-68
2023/08/24 08:56:31;;;;;;;7.13;4.68;;;;;;;34.47;43.50;98996.88;5093234;28;20111;-69
2023/08/24 08:58:59;;;;;;;5.35;4.30;;;;;;;34.48;43.19;99004.00;5093335;28;20108;-69
2023/08/24 09:01:25;;;;;;;5.18;4.20;;;;;;;34.50;43.65;99006.50;5092668;28;20241;-69
2023/08/24 09:03:51;;;;;;;6.10;4.15;;;;;;;34.50;43.54;99004.63;5093508;28;20535;-69
2023/08/24 09:06:17;;;;;;;4.95;4.10;;;;;;;34.51;43.25;99003.59;5093437;28;20020;-69
2023/08/24 09:08:44;;;;;;;6.05;4.00;;;;;;;34.51;43.38;99003.59;5093613;28;20031;-69
2023/08/24 09:11:10;;;;;;;6.60;4.38;;;;;;;34.52;43.16;98999.03;5093461;28;20020;-69
2023/08/24 09:13:35;;;;;;;5.55;4.30;;;;;;;34.50;43.61;99001.94;5093165;28;20398;-70
2023/08/24 09:16:06;;;;;;;5.78;3.83;;;;;;;34.51;43.13;98998.19;5092990;28;20020;-69
2023/08/24 09:18:38;;;;;;;6.32;4.03;;;;;;;34.51;43.58;99000.88;5093088;28;20054;-69
2023/08/24 09:21:11;;;;;;;7.85;4.78;;;;;;;34.52;43.33;98999.84;5093087;28;20028;-70
2023/08/24 09:23:38;;;;;;;6.30;4.10;;;;;;;34.54;43.55;99002.38;5093064;28;20032;-69
2023/08/24 09:26:04;;;;;;;6.75;4.20;;;;;;;34.55;43.26;99006.75;5093355;28;20031;-69
2023/08/24 09:28:30;;;;;;;5.18;4.25;;;;;;;34.55;43.28;99004.88;5093159;28;20035;-69
2023/08/24 09:31:01;;;;;;;4.93;4.25;;;;;;;34.55;43.08;99012.16;5092885;28;20020;-69
2023/08/24 09:33:26;;;;;;;5.88;4.20;;;;;;;34.57;43.41;99006.56;5092982;28;20038;-69
2023/08/24 09:35:54;;;;;;;7.22;4.20;;;;;;;34.58;43.22;99010.97;5092959;28;20020;-70
2023/08/24 09:38:21;;;;;;;5.72;4.28;;;;;;;34.59;43.22;99009.94;5092972;28;20056;-69
2023/08/24 09:40:51;;;;;;;5.38;3.83;;;;;;;34.60;43.29;99007.03;5092990;28;20028;-69
2023/08/24 09:43:16;;;;;;;5.53;4.38;;;;;;;34.61;43.20;99013.31;5092719;28;20035;-68
2023/08/24 09:45:52;;;;;;;5.57;4.40;;;;;;;34.61;43.42;99010.59;5092554;28;20095;-69
2023/08/24 09:48:18;;;;;;;6.85;4.30;;;;;;;34.61;43.60;99013.31;5092844;28;20035;-69
2023/08/24 09:50:49;;;;;;;5.82;4.25;;;;;;;34.60;43.29;99001.63;5092787;28;20399;-70
2023/08/24 09:53:22;;;;;;;6.15;4.45;;;;;;;34.61;43.43;99002.47;5092816;28;20394;-69
2023/08/24 09:55:58;;;;;;;7.20;4.15;;;;;;;34.63;43.29;99008.53;5091436;28;20103;-69
2023/08/24 09:58:24;;;;;;;5.40;4.22;;;;;;;34.62;43.24;99006.84;5092119;28;20039;-69
2023/08/24 10:00:50;;;;;;;4.88;3.90;;;;;;;34.63;43.31;99013.94;5092636;28;20016;-70
2023/08/24 10:03:20;;;;;;;5.43;3.90;;;;;;;34.62;43.63;99009.56;5090995;28;20093;-69
2023/08/24 10:05:53;;;;;;;5.97;4.05;;;;;;;34.64;43.68;99007.47;5092433;28;20035;-70
2023/08/24 10:08:26;;;;;;;5.88;4.00;;;;;;;34.65;43.21;99003.72;5092596;28;20081;-68
2023/08/24 10:10:55;;;;;;;5.78;4.57;;;;;;;34.66;43.56;99005.41;5092528;28;20020;-69
2023/08/24 10:13:45;;;;;;;4.93;3.58;;;;;;;34.66;43.46;98991.84;5092042;28;20051;-70
2023/08/24 10:16:13;;;;;;;5.07;3.97;;;;;;;34.67;43.34;98996.28;5092569;28;20031;-70
2023/08/24 10:18:40;;;;;;;4.85;3.70;;;;;;;34.67;43.53;99002.50;5092312;28;20545;-69
2023/08/24 10:21:07;;;;;;;4.30;3.75;;;;;;;34.70;43.45;98995.03;5092307;28;20039;-70
2023/08/24 10:23:37;;;;;;;5.38;4.32;;;;;;;34.69;43.16;98988.78;5092265;28;20031;-69
2023/08/24 10:26:03;;;;;;;4.95;4.07;;;;;;;34.72;43.64;98998.38;5092261;28;20032;-70
2023/08/24 10:28:29;;;;;;;5.07;3.65;;;;;;;34.71;43.46;98996.72;5091922;28;20020;-70
2023/08/24 10:30:57;;;;;;;5.75;3.97;;;;;;;34.73;43.69;98997.34;5093048;28;20476;-70
2023/08/24 10:33:23;;;;;;;5.20;4.00;;;;;;;34.73;43.55;98998.19;5098617;28;20030;-69
2023/08/24 10:35:49;;;;;;;5.45;4.05;;;;;;;34.74;43.56;98999.84;5098716;28;20020;-69
2023/08/24 10:38:44;;;;;;;6.20;3.92;;;;;;;34.74;43.56;99005.28;5099003;28;20050;-70
2023/08/24 10:41:13;;;;;;;6.25;4.13;;;;;;;34.77;43.46;98995.91;5097241;28;20627;-70
2023/08/24 10:43:41;;;;;;;4.82;3.90;;;;;;;34.77;43.44;99004.06;5098470;28;20085;-69
2023/08/24 10:46:14;;;;;;;6.15;4.10;;;;;;;34.77;43.31;99002.16;5098834;28;20026;-69
2023/08/24 10:48:42;;;;;;;5.10;4.10;;;;;;;34.77;43.53;99004.88;5098810;28;20020;-69
2023/08/24 10:51:18;;;;;;;5.38;4.13;;;;;;;34.79;43.34;98999.25;5098811;28;20408;-68
2023/08/24 10:53:46;;;;;;;4.80;3.72;;;;;;;34.79;43.46;99004.69;5098843;28;20032;-70
2023/08/24 10:56:16;;;;;;;5.53;3.60;;;;;;;34.81;43.23;98998.03;5097485;28;20024;-70
2023/08/24 10:58:44;;;;;;;5.93;3.65;;;;;;;34.81;43.70;99000.75;5098416;28;20024;-69
2023/08/24 11:01:21;;;;;;;4.47;3.63;;;;;;;34.83;43.43;99005.13;5098571;28;20498;-70
2023/08/24 11:03:50;;;;;;;5.00;3.90;;;;;;;34.83;43.77;98999.69;5098590;28;20081;-70
2023/08/24 11:06:24;;;;;;;5.00;3.72;;;;;;;34.84;43.61;99001.38;5098737;28;20028;-69
2023/08/24 11:09:06;;;;;;;4.10;3.28;;;;;;;34.85;43.44;98995.75;5098724;28;20024;-69
2023/08/24 11:11:32;;;;;;;5.20;3.70;;;;;;;34.87;43.38;98995.56;5098482;28;20020;-70
2023/08/24 11:14:22;;;;;;;4.60;3.55;;;;;;;34.87;43.41;98991.00;5098420;28;20507;-69
2023/08/24 11:16:48;;;;;;;4.70;3.47;;;;;;;34.87;43.57;98991.00;5098608;28;20111;-69
2023/08/24 11:19:14;;;;;;;4.93;3.88;;;;;;;34.89;43.56;98983.50;5098575;28;20111;-69
2023/08/24 11:21:41;;;;;;;4.78;3.80;;;;;;;34.90;43.50;98989.78;5098176;28;20511;-69
2023/08/24 11:24:07;;;;;;;4.90;3.63;;;;;;;34.91;43.52;98977.88;5098427;28;20157;-69
2023/08/24 11:26:34;;;;;;;4.13;3.28;;;;;;;34.92;43.69;98982.28;5098144;28;20507;-69
2023/08/24 11:28:59;;;;;;;5.10;3.72;;;;;;;34.93;43.31;98975.81;5098272;28;20491;-69
2023/08/24 11:31:25;;;;;;;4.43;3.58;;;;;;;34.95;43.53;98976.44;5098523;28;20053;-69
2023/08/24 11:33:57;;;;;;;4.47;3.53;;;;;;;34.93;43.48;98973.09;5098431;28;20074;-70